createdAt,value
2019-02-19T00:01:25.322Z,7.70
2019-02-19T00:03:53.581Z,7.70
2019-02-19T00:06:21.086Z,7.80
2019-02-19T00:08:48.904Z,7.90
2019-02-19T00:11:17.034Z,7.80
2019-02-19T00:13:45.207Z,7.70
2019-02-19T00:16:12.731Z,7.60
2019-02-19T00:18:40.292Z,7.70
2019-02-19T00:21:07.958Z,7.80
2019-02-19T00:23:35.775Z,8.00
2019-02-19T00:26:12.349Z,7.90
2019-02-19T00:28:40.163Z,7.80
2019-02-19T00:31:08.290Z,7.60
2019-02-19T00:33:35.856Z,7.80
2019-02-19T00:36:04.914Z,7.90
2019-02-19T00:38:32.568Z,7.70
2019-02-19T00:41:00.077Z,7.70
2019-02-19T00:43:30.565Z,7.70
2019-02-19T00:45:58.134Z,7.80
2019-02-19T00:48:25.753Z,7.70
2019-02-19T00:50:53.344Z,7.80
2019-02-19T00:53:20.866Z,8.10
2019-02-19T00:55:48.911Z,8.00
2019-02-19T00:58:16.399Z,7.90
2019-02-19T01:00:44.025Z,8.00
2019-02-19T01:03:11.969Z,7.70
2019-02-19T01:05:39.940Z,7.70
2019-02-19T01:08:07.542Z,7.70
2019-02-19T01:10:35.124Z,7.90
2019-02-19T01:13:02.993Z,7.70
2019-02-19T01:15:32.879Z,7.50
2019-02-19T01:18:00.433Z,7.70
2019-02-19T01:20:27.930Z,7.70
2019-02-19T01:22:55.747Z,7.50
2019-02-19T01:25:23.846Z,8.00
2019-02-19T01:27:51.774Z,7.80
2019-02-19T01:30:19.925Z,7.70
2019-02-19T01:32:47.753Z,7.80
2019-02-19T01:35:15.328Z,7.50
2019-02-19T01:37:43.738Z,7.40
2019-02-19T01:40:11.514Z,7.60
2019-02-19T01:42:39.263Z,7.50
2019-02-19T01:45:07.954Z,7.70
2019-02-19T01:47:35.502Z,7.50
2019-02-19T01:50:03.792Z,7.50
2019-02-19T01:52:36.523Z,7.40
2019-02-19T01:55:05.962Z,7.60
2019-02-19T01:57:34.628Z,7.30
2019-02-19T02:00:02.266Z,7.30
2019-02-19T02:02:33.108Z,7.50
2019-02-19T02:05:02.946Z,7.40
2019-02-19T02:07:30.543Z,7.50
2019-02-19T02:09:58.094Z,7.50
2019-02-19T02:12:26.479Z,7.30
2019-02-19T02:14:54.923Z,7.60
2019-02-19T02:17:23.111Z,7.70
2019-02-19T02:19:51.262Z,7.60
2019-02-19T02:22:19.101Z,7.40
2019-02-19T02:24:47.578Z,7.40
2019-02-19T02:27:15.118Z,7.30
2019-02-19T02:29:42.884Z,7.50
2019-02-19T02:32:10.601Z,7.70
2019-02-19T02:34:38.471Z,7.60
2019-02-19T02:37:06.249Z,7.70
2019-02-19T02:39:34.184Z,7.90
2019-02-19T02:42:02.218Z,8.00
2019-02-19T02:44:31.323Z,8.30
2019-02-19T02:47:04.069Z,8.20
2019-02-19T02:49:32.436Z,8.00
2019-02-19T02:51:59.956Z,7.90
2019-02-19T02:54:28.770Z,8.10
2019-02-19T02:56:57.277Z,7.40
2019-02-19T02:59:25.312Z,7.60
2019-02-19T03:01:52.842Z,7.50
2019-02-19T03:04:20.638Z,7.80
2019-02-19T03:07:11.302Z,7.50
2019-02-19T03:09:38.962Z,7.30
2019-02-19T03:12:07.071Z,7.50
2019-02-19T03:14:34.622Z,7.40
2019-02-19T03:17:02.919Z,7.40
2019-02-19T03:19:30.415Z,7.30
2019-02-19T03:21:58.005Z,7.30
2019-02-19T03:24:25.562Z,7.50
2019-02-19T03:26:53.023Z,7.40
2019-02-19T03:29:20.605Z,7.40
2019-02-19T03:31:48.554Z,7.20
2019-02-19T03:34:16.148Z,7.20
2019-02-19T03:36:43.738Z,7.30
2019-02-19T03:39:11.568Z,7.50
2019-02-19T03:41:39.364Z,7.40
2019-02-19T03:44:06.888Z,7.50
2019-02-19T03:46:34.413Z,7.30
2019-02-19T03:49:02.507Z,7.20
2019-02-19T03:51:30.206Z,7.40
2019-02-19T03:53:58.072Z,7.40
2019-02-19T03:56:26.384Z,7.30
2019-02-19T03:58:53.963Z,7.40
2019-02-19T04:01:21.968Z,7.30
2019-02-19T04:03:49.591Z,7.40
2019-02-19T04:06:17.055Z,7.50
2019-02-19T04:08:44.559Z,7.20
2019-02-19T04:11:13.418Z,7.10
2019-02-19T04:13:41.306Z,7.20
2019-02-19T04:16:08.795Z,7.00
2019-02-19T04:18:36.346Z,7.30
2019-02-19T04:21:04.115Z,7.10
2019-02-19T04:23:31.651Z,7.00
2019-02-19T04:25:59.382Z,7.10
2019-02-19T04:28:27.687Z,7.10
2019-02-19T04:30:55.827Z,7.30
2019-02-19T04:33:23.653Z,7.20
2019-02-19T04:35:51.567Z,7.30
2019-02-19T04:38:19.154Z,7.20
2019-02-19T04:40:46.719Z,7.30
2019-02-19T04:43:14.279Z,7.20
2019-02-19T04:45:41.830Z,7.40
2019-02-19T04:48:09.317Z,7.30
2019-02-19T04:50:36.907Z,7.40
2019-02-19T04:53:04.451Z,7.10
2019-02-19T04:55:32.230Z,7.20
2019-02-19T04:58:00.859Z,7.20
2019-02-19T05:00:29.012Z,7.50
2019-02-19T05:02:56.910Z,7.20
2019-02-19T05:05:24.470Z,7.50
2019-02-19T05:07:51.954Z,7.40
2019-02-19T05:10:19.438Z,7.50
2019-02-19T05:12:47.257Z,7.40
2019-02-19T05:15:15.158Z,7.50
2019-02-19T05:17:42.716Z,7.50
2019-02-19T05:20:10.599Z,7.60
2019-02-19T05:22:38.198Z,7.50
2019-02-19T05:25:06.108Z,7.50
2019-02-19T05:27:33.660Z,7.70
2019-02-19T05:30:01.231Z,7.70
2019-02-19T05:32:28.811Z,7.70
2019-02-19T05:34:56.278Z,7.70
2019-02-19T05:37:24.779Z,7.70
2019-02-19T05:39:52.930Z,7.60
2019-02-19T05:42:20.627Z,7.50
2019-02-19T05:44:48.456Z,7.70
2019-02-19T05:47:15.995Z,7.60
2019-02-19T05:49:43.934Z,7.70
2019-02-19T05:52:11.510Z,7.70
2019-02-19T05:54:39.006Z,7.60
2019-02-19T05:57:06.503Z,7.70
2019-02-19T05:59:35.090Z,7.70
2019-02-19T06:02:03.010Z,7.70
2019-02-19T06:04:30.542Z,7.70
2019-02-19T06:06:58.132Z,7.70
2019-02-19T06:09:25.665Z,7.70
2019-02-19T06:11:53.549Z,8.00
2019-02-19T06:14:22.056Z,7.70
2019-02-19T06:16:58.072Z,7.70
2019-02-19T06:19:19.854Z,7.70
2019-02-19T06:21:47.392Z,7.70
2019-02-19T06:24:15.193Z,7.70
2019-02-19T06:26:43.046Z,7.90
2019-02-19T06:29:10.848Z,8.00
2019-02-19T06:31:38.494Z,8.00
2019-02-19T06:34:06.362Z,7.90
2019-02-19T06:36:34.196Z,8.00
2019-02-19T06:39:01.779Z,8.00
2019-02-19T06:41:29.262Z,8.10
2019-02-19T06:43:56.844Z,7.90
2019-02-19T06:46:25.007Z,8.00
2019-02-19T06:48:52.836Z,7.90
2019-02-19T06:51:20.702Z,8.00
2019-02-19T06:53:48.286Z,7.90
2019-02-19T06:56:16.072Z,7.70
2019-02-19T06:58:43.659Z,8.10
2019-02-19T07:01:11.226Z,7.90
2019-02-19T07:03:55.123Z,7.90
2019-02-19T07:06:22.590Z,8.00
2019-02-19T07:08:50.063Z,7.70
2019-02-19T07:11:18.230Z,7.70
2019-02-19T07:13:46.298Z,7.90
2019-02-19T07:16:14.996Z,7.80
2019-02-19T07:18:42.699Z,7.80
2019-02-19T07:21:10.357Z,7.80
2019-02-19T07:23:38.277Z,7.80
2019-02-19T07:26:06.183Z,7.80
2019-02-19T07:28:34.006Z,7.90
2019-02-19T07:31:01.550Z,8.00
2019-02-19T07:33:29.406Z,8.00
2019-02-19T07:35:57.272Z,8.10
2019-02-19T07:38:24.730Z,7.90
2019-02-19T07:40:52.232Z,8.20
2019-02-19T07:43:19.982Z,7.90
2019-02-19T07:45:47.820Z,7.90
2019-02-19T07:48:15.843Z,7.60
2019-02-19T07:50:43.635Z,7.70
2019-02-19T07:53:11.175Z,7.70
2019-02-19T07:55:39.048Z,7.70
2019-02-19T07:58:06.896Z,7.70
2019-02-19T08:00:34.583Z,7.70
2019-02-19T08:03:02.894Z,7.80
2019-02-19T08:05:30.487Z,7.70
2019-02-19T08:07:58.582Z,7.60
2019-02-19T08:10:26.735Z,7.60
2019-02-19T08:12:54.834Z,7.90
2019-02-19T08:15:22.409Z,7.70
2019-02-19T08:17:50.440Z,7.70
2019-02-19T08:20:17.893Z,7.80
2019-02-19T08:22:45.804Z,7.90
2019-02-19T08:25:13.646Z,7.70
2019-02-19T08:27:41.145Z,7.80
2019-02-19T08:30:08.779Z,8.00
2019-02-19T08:32:36.582Z,7.90
2019-02-19T08:35:04.255Z,8.00
2019-02-19T08:37:31.831Z,8.00
2019-02-19T08:39:59.263Z,7.90
2019-02-19T08:42:27.438Z,7.90
2019-02-19T08:44:54.918Z,8.00
2019-02-19T08:47:22.549Z,7.80
2019-02-19T08:49:55.683Z,7.90
2019-02-19T08:52:23.772Z,8.00
2019-02-19T08:54:51.650Z,8.00
2019-02-19T08:57:19.197Z,8.00
2019-02-19T08:59:47.263Z,7.90
2019-02-19T09:02:14.856Z,8.30
2019-02-19T09:04:42.939Z,7.90
2019-02-19T09:07:11.498Z,8.00
2019-02-19T09:09:39.658Z,8.00
2019-02-19T09:12:07.519Z,8.10
2019-02-19T09:14:35.076Z,8.40
2019-02-19T09:17:02.946Z,8.10
2019-02-19T09:19:30.436Z,8.30
2019-02-19T09:21:58.527Z,8.50
2019-02-19T09:24:26.039Z,8.20
2019-02-19T09:26:53.865Z,8.20
2019-02-19T09:29:32.363Z,8.20
2019-02-19T09:32:02.776Z,8.30
2019-02-19T09:34:30.658Z,8.20
2019-02-19T09:36:59.165Z,8.70
2019-02-19T09:39:27.594Z,8.20
2019-02-19T09:41:55.722Z,8.50
2019-02-19T09:44:25.388Z,8.60
2019-02-19T09:46:53.316Z,8.60
2019-02-19T09:49:20.858Z,8.70
2019-02-19T09:51:48.639Z,8.50
2019-02-19T09:54:16.191Z,8.80
2019-02-19T09:56:44.007Z,8.60
2019-02-19T09:59:11.883Z,9.10
2019-02-19T10:01:39.442Z,8.90
2019-02-19T10:04:07.588Z,8.70
2019-02-19T10:06:35.185Z,8.80
2019-02-19T10:09:04.527Z,8.80
2019-02-19T10:11:32.475Z,9.10
2019-02-19T10:14:00.063Z,9.10
2019-02-19T10:16:27.882Z,9.10
2019-02-19T10:18:55.853Z,9.10
2019-02-19T10:21:23.472Z,8.90
2019-02-19T10:23:50.955Z,9.10
2019-02-19T10:26:19.184Z,8.60
2019-02-19T10:28:47.064Z,8.70
2019-02-19T10:31:14.942Z,8.90
2019-02-19T10:33:42.390Z,9.00
2019-02-19T10:36:09.971Z,9.00
2019-02-19T10:38:38.030Z,8.50
2019-02-19T10:41:05.498Z,8.80
2019-02-19T10:43:33.668Z,8.80
2019-02-19T10:46:01.142Z,8.60
2019-02-19T10:48:29.251Z,8.60
2019-02-19T10:50:56.857Z,8.60
2019-02-19T10:53:24.714Z,8.60
2019-02-19T10:55:52.487Z,8.50
2019-02-19T10:58:23.017Z,8.50
2019-02-19T11:00:49.737Z,8.80
2019-02-19T11:03:17.392Z,8.80
2019-02-19T11:05:44.858Z,8.90
2019-02-19T11:08:13.515Z,8.80
2019-02-19T11:10:41.567Z,8.70
2019-02-19T11:13:09.315Z,9.00
2019-02-19T11:15:37.186Z,8.70
2019-02-19T11:18:05.105Z,9.00
2019-02-19T11:20:33.279Z,8.90
2019-02-19T11:23:00.978Z,9.00
2019-02-19T11:25:28.998Z,9.00
2019-02-19T11:27:56.674Z,9.00
2019-02-19T11:30:24.606Z,9.20
2019-02-19T11:32:52.066Z,9.40
2019-02-19T11:35:19.574Z,9.40
2019-02-19T11:37:47.048Z,9.30
2019-02-19T11:40:14.666Z,9.50
2019-02-19T11:42:42.153Z,9.80
2019-02-19T11:45:11.596Z,9.70
2019-02-19T11:47:43.217Z,9.70
2019-02-19T11:50:12.010Z,9.70
2019-02-19T11:52:40.155Z,9.60
2019-02-19T11:55:10.920Z,9.90
2019-02-19T11:57:38.501Z,9.90
2019-02-19T12:00:08.938Z,9.90
2019-02-19T12:02:36.848Z,9.90
2019-02-19T12:05:06.806Z,9.80
2019-02-19T12:07:34.525Z,9.90
2019-02-19T12:10:02.835Z,10.10
2019-02-19T12:12:30.854Z,10.10
2019-02-19T12:14:58.457Z,9.90
2019-02-19T12:17:25.926Z,10.20
2019-02-19T12:19:53.794Z,10.20
2019-02-19T12:22:21.557Z,10.60
2019-02-19T12:24:49.174Z,10.80
2019-02-19T12:27:17.583Z,10.70
2019-02-19T12:29:45.350Z,10.80
2019-02-19T12:32:13.070Z,10.80
2019-02-19T12:34:40.614Z,11.10
2019-02-19T12:37:09.286Z,11.50
2019-02-19T12:39:36.786Z,11.90
2019-02-19T12:42:04.528Z,12.30
2019-02-19T12:44:32.203Z,12.70
2019-02-19T12:46:59.875Z,12.60
2019-02-19T12:49:27.692Z,12.60
2019-02-19T12:51:55.644Z,12.80
2019-02-19T12:54:23.238Z,12.80
2019-02-19T12:56:51.073Z,12.70
2019-02-19T12:59:18.634Z,12.10
2019-02-19T13:01:46.114Z,12.60
2019-02-19T13:04:14.017Z,13.40
2019-02-19T13:06:41.542Z,14.90
2019-02-19T13:09:10.277Z,15.90
2019-02-19T13:11:39.036Z,16.40
2019-02-19T13:14:08.426Z,16.50
2019-02-19T13:16:35.923Z,16.20
2019-02-19T13:19:04.183Z,16.20
2019-02-19T13:21:31.714Z,15.90
2019-02-19T13:23:59.950Z,15.60
2019-02-19T13:26:27.827Z,15.60
2019-02-19T13:28:56.135Z,15.00
2019-02-19T13:31:24.042Z,14.30
2019-02-19T13:33:51.632Z,13.80
2019-02-19T13:36:19.750Z,13.50
2019-02-19T13:38:47.838Z,13.00
2019-02-19T13:41:15.741Z,12.90
2019-02-19T13:43:43.559Z,12.60
2019-02-19T13:46:11.311Z,12.50
2019-02-19T13:48:38.845Z,12.50
2019-02-19T13:51:06.380Z,12.80
2019-02-19T13:53:43.575Z,12.60
2019-02-19T13:56:11.565Z,13.00
2019-02-19T13:58:39.962Z,13.30
2019-02-19T14:01:07.446Z,14.10
2019-02-19T14:03:36.043Z,14.30
2019-02-19T14:06:03.883Z,14.30
2019-02-19T14:08:31.681Z,14.90
2019-02-19T14:10:59.282Z,14.70
2019-02-19T14:13:26.923Z,14.50
2019-02-19T14:16:12.524Z,14.70
2019-02-19T14:19:03.278Z,14.80
2019-02-19T14:21:58.938Z,14.40
2019-02-19T14:25:00.204Z,13.80
2019-02-19T14:27:50.039Z,13.70
2019-02-19T14:30:52.563Z,13.30
2019-02-19T14:33:51.525Z,13.30
2019-02-19T14:36:30.554Z,13.00
2019-02-19T14:39:25.869Z,12.70
2019-02-19T14:42:30.806Z,12.90
2019-02-19T14:45:14.450Z,12.40
2019-02-19T14:48:00.022Z,12.40
2019-02-19T14:50:47.062Z,12.30
2019-02-19T14:53:37.226Z,12.20
2019-02-19T14:56:27.540Z,12.40
2019-02-19T14:59:15.712Z,12.00
2019-02-19T15:02:02.686Z,12.40
2019-02-19T15:04:43.231Z,12.20
2019-02-19T15:07:42.158Z,12.10
2019-02-19T15:10:43.927Z,12.20
2019-02-19T15:13:39.629Z,11.90
2019-02-19T15:16:24.066Z,11.90
2019-02-19T15:19:06.622Z,12.00
2019-02-19T15:21:44.159Z,12.10
2019-02-19T15:24:29.778Z,12.10
2019-02-19T15:27:10.335Z,12.50
2019-02-19T15:29:51.296Z,12.40
2019-02-19T15:32:37.284Z,12.10
2019-02-19T15:35:18.798Z,12.00
2019-02-19T15:38:08.585Z,12.30
2019-02-19T15:41:02.171Z,12.10
2019-02-19T15:43:41.430Z,12.10
2019-02-19T15:46:34.378Z,12.00
2019-02-19T15:49:23.915Z,12.00
2019-02-19T15:52:09.515Z,12.00
2019-02-19T15:55:02.789Z,12.10
2019-02-19T15:57:48.807Z,11.80
2019-02-19T16:00:32.699Z,11.80
2019-02-19T16:03:20.867Z,11.60
2019-02-19T16:05:56.831Z,11.50
2019-02-19T16:08:41.207Z,11.60
2019-02-19T16:11:25.876Z,11.30
2019-02-19T16:14:03.037Z,11.60
2019-02-19T16:16:44.746Z,11.20
2019-02-19T16:19:23.214Z,11.10
2019-02-19T16:22:01.970Z,11.20
2019-02-19T16:24:48.964Z,11.00
2019-02-19T16:27:34.418Z,10.90
2019-02-19T16:30:13.902Z,10.90
2019-02-19T16:33:01.510Z,10.70
2019-02-19T16:35:44.531Z,10.60
2019-02-19T16:38:30.381Z,10.70
2019-02-19T16:41:15.587Z,10.70
2019-02-19T16:44:05.925Z,10.50
2019-02-19T16:46:53.862Z,10.50
2019-02-19T16:49:39.494Z,10.30
2019-02-19T16:52:26.662Z,10.20
2019-02-19T16:55:05.850Z,10.20
2019-02-19T16:58:11.640Z,10.10
2019-02-19T17:00:56.131Z,10.10
2019-02-19T17:03:55.336Z,10.10
2019-02-19T17:06:59.078Z,9.90
2019-02-19T17:09:45.162Z,9.70
2019-02-19T17:12:30.730Z,9.80
2019-02-19T17:15:21.033Z,9.40
2019-02-19T17:18:03.165Z,9.60
2019-02-19T17:20:39.630Z,9.80
2019-02-19T17:23:22.247Z,9.60
2019-02-19T17:26:12.648Z,9.30
2019-02-19T17:29:05.842Z,9.50
2019-02-19T17:31:43.371Z,9.50
2019-02-19T17:34:25.628Z,8.80
2019-02-19T17:37:11.067Z,9.50
2019-02-19T17:39:50.399Z,9.20
2019-02-19T17:42:35.817Z,9.20
2019-02-19T17:45:14.467Z,9.30
2019-02-19T17:47:56.178Z,9.10
2019-02-19T17:50:47.299Z,9.20
2019-02-19T17:53:28.968Z,9.10
2019-02-19T17:56:18.638Z,8.90
2019-02-19T17:58:57.630Z,8.30
2019-02-19T18:01:42.586Z,8.80
2019-02-19T18:04:15.772Z,8.40
2019-02-19T18:07:06.021Z,8.50
2019-02-19T18:09:46.534Z,8.60
2019-02-19T18:12:39.940Z,8.30
2019-02-19T18:15:29.854Z,8.20
2019-02-19T18:18:18.070Z,8.20
2019-02-19T18:20:47.734Z,8.50
2019-02-19T18:23:15.535Z,8.10
2019-02-19T18:25:43.036Z,7.90
2019-02-19T18:28:10.711Z,7.90
2019-02-19T18:30:38.558Z,8.20
2019-02-19T18:33:06.081Z,8.00
2019-02-19T18:35:34.228Z,8.00
2019-02-19T18:38:02.795Z,8.10
2019-02-19T18:40:30.388Z,7.90
2019-02-19T18:42:58.778Z,8.00
2019-02-19T18:45:26.405Z,7.70
2019-02-19T18:47:53.952Z,7.90
2019-02-19T18:50:21.926Z,7.80
2019-02-19T18:52:49.518Z,7.60
2019-02-19T18:55:17.096Z,7.70
2019-02-19T18:57:44.963Z,7.90
2019-02-19T19:00:13.058Z,7.70
2019-02-19T19:02:40.926Z,7.90
2019-02-19T19:05:08.569Z,7.70
2019-02-19T19:07:36.175Z,7.70
2019-02-19T19:10:04.603Z,7.80
2019-02-19T19:12:32.266Z,7.60
2019-02-19T19:14:59.848Z,7.40
2019-02-19T19:17:27.614Z,7.60
2019-02-19T19:19:55.155Z,7.50
2019-02-19T19:22:23.067Z,7.40
2019-02-19T19:24:50.681Z,7.50
2019-02-19T19:27:18.259Z,7.40
2019-02-19T19:29:45.916Z,7.50
2019-02-19T19:32:13.431Z,7.50
2019-02-19T19:34:41.707Z,7.40
2019-02-19T19:37:09.506Z,7.50
2019-02-19T19:39:37.461Z,7.30
2019-02-19T19:42:06.024Z,7.40
2019-02-19T19:44:33.676Z,7.30
2019-02-19T19:47:01.633Z,7.30
2019-02-19T19:49:29.950Z,7.40
2019-02-19T19:51:58.183Z,7.60
2019-02-19T19:54:25.730Z,7.30
2019-02-19T19:56:53.250Z,7.50
2019-02-19T20:03:01.385Z,7.50
2019-02-19T20:05:29.305Z,7.50
2019-02-19T20:07:56.910Z,7.00
2019-02-19T20:10:24.867Z,7.10
2019-02-19T20:12:52.710Z,7.30
2019-02-19T20:15:20.239Z,7.20
2019-02-19T20:17:48.020Z,7.40
2019-02-19T20:20:16.255Z,7.20
2019-02-19T20:22:43.881Z,7.20
2019-02-19T20:25:11.865Z,7.10
2019-02-19T20:27:39.712Z,7.50
2019-02-19T20:30:08.677Z,7.10
2019-02-19T20:32:36.352Z,7.00
2019-02-19T20:35:04.704Z,7.10
2019-02-19T20:37:32.304Z,7.10
2019-02-19T20:39:59.959Z,7.10
2019-02-19T20:42:27.455Z,7.10
2019-02-19T20:44:55.335Z,7.00
2019-02-19T20:47:22.920Z,6.80
2019-02-19T20:49:50.540Z,7.00
2019-02-19T20:52:18.426Z,7.10
2019-02-19T20:54:45.990Z,7.00
2019-02-19T20:57:14.104Z,7.10
2019-02-19T20:59:41.582Z,7.00
2019-02-19T21:02:09.365Z,6.90
2019-02-19T21:04:37.074Z,6.90
2019-02-19T21:07:04.755Z,7.10
2019-02-19T21:09:43.157Z,6.80
2019-02-19T21:12:02.267Z,6.80
2019-02-19T21:14:30.286Z,6.80
2019-02-19T21:16:57.935Z,6.90
2019-02-19T21:19:26.055Z,6.80
2019-02-19T21:21:53.681Z,7.00
2019-02-19T21:24:21.252Z,6.90
2019-02-19T21:26:49.462Z,6.90
2019-02-19T21:29:17.075Z,6.70
2019-02-19T21:31:44.743Z,6.50
2019-02-19T21:34:12.309Z,6.60
2019-02-19T21:36:40.067Z,6.60
2019-02-19T21:39:07.702Z,6.60
2019-02-19T21:41:35.272Z,6.60
2019-02-19T21:44:03.243Z,6.70
2019-02-19T21:46:30.903Z,6.70
2019-02-19T21:48:58.450Z,6.70
2019-02-19T21:51:25.945Z,6.70
2019-02-19T21:53:53.694Z,6.70
2019-02-19T21:56:21.266Z,6.50
2019-02-19T21:58:49.126Z,6.50
2019-02-19T22:01:16.825Z,6.30
2019-02-19T22:03:44.678Z,6.30
2019-02-19T22:06:12.459Z,6.30
2019-02-19T22:08:40.215Z,6.50
2019-02-19T22:11:07.871Z,6.40
2019-02-19T22:13:35.712Z,6.20
2019-02-19T22:16:03.578Z,6.30
2019-02-19T22:18:31.926Z,6.30
2019-02-19T22:21:24.507Z,6.40
2019-02-19T22:23:52.311Z,6.40
2019-02-19T22:26:19.832Z,6.30
2019-02-19T22:28:47.547Z,6.30
2019-02-19T22:31:15.522Z,6.30
2019-02-19T22:33:43.300Z,6.40
2019-02-19T22:36:11.282Z,6.20
2019-02-19T22:38:39.040Z,6.20
2019-02-19T22:41:06.662Z,6.20
2019-02-19T22:43:34.234Z,6.50
2019-02-19T22:46:02.090Z,6.40
2019-02-19T22:48:29.686Z,6.20
2019-02-19T22:50:57.498Z,6.40
2019-02-19T22:53:53.916Z,6.30
2019-02-19T22:56:27.567Z,6.30
2019-02-19T22:58:55.435Z,6.40
2019-02-19T23:01:34.983Z,6.70
2019-02-19T23:04:02.585Z,6.50
2019-02-19T23:06:30.242Z,6.40
2019-02-19T23:08:58.605Z,6.30
2019-02-19T23:11:26.369Z,6.40
2019-02-19T23:13:53.972Z,6.20
2019-02-19T23:16:21.579Z,6.30
2019-02-19T23:18:49.118Z,6.40
2019-02-19T23:21:17.559Z,6.30
2019-02-19T23:23:45.883Z,6.30
2019-02-19T23:26:13.903Z,6.00
2019-02-19T23:28:43.018Z,6.30
2019-02-19T23:31:10.729Z,6.00
2019-02-19T23:33:38.630Z,6.20
2019-02-19T23:36:44.236Z,5.90
2019-02-19T23:39:12.082Z,6.20
2019-02-19T23:41:39.970Z,6.20
2019-02-19T23:44:07.957Z,6.00
2019-02-19T23:46:35.900Z,6.10
2019-02-19T23:49:03.727Z,6.10
2019-02-19T23:51:32.094Z,6.10
2019-02-19T23:54:00.030Z,6.00
2019-02-19T23:56:27.923Z,5.90
2019-02-19T23:58:55.532Z,6.20
